sensor_id;sensor_type;location;lat;lon;timestamp;temperature;humidity
33476;DHT22;19814;48.224;11.422;2023-03-20T00:01:27;9.70;99.90
33476;DHT22;19814;48.224;11.422;2023-03-20T00:03:53;9.70;99.90
33476;DHT22;19814;48.224;11.422;2023-03-20T00:06:26;9.70;99.90
33476;DHT22;19814;48.224;11.422;2023-03-20T00:08:54;9.60;99.90
33476;DHT22;19814;48.224;11.422;2023-03-20T00:11:27;9.60;99.90
33476;DHT22;19814;48.224;11.422;2023-03-20T00:13:58;9.60;99.90
33476;DHT22;19814;48.224;11.422;2023-03-20T00:16:30;9.60;99.90
33476;DHT22;19814;48.224;11.422;2023-03-20T00:18:56;9.60;99.90
33476;DHT22;19814;48.224;11.422;2023-03-20T00:21:23;9.60;99.90
33476;DHT22;19814;48.224;11.422;2023-03-20T00:23:48;9.60;99.90
33476;DHT22;19814;48.224;11.422;2023-03-20T00:26:15;9.60;99.90
33476;DHT22;19814;48.224;11.422;2023-03-20T00:28:48;9.60;99.90
33476;DHT22;19814;48.224;11.422;2023-03-20T00:33:46;9.50;99.90
33476;DHT22;19814;48.224;11.422;2023-03-20T00:36:12;9.50;99.90
33476;DHT22;19814;48.224;11.422;2023-03-20T00:38:37;9.50;99.90
33476;DHT22;19814;48.224;11.422;2023-03-20T00:41:11;9.50;99.90
33476;DHT22;19814;48.224;11.422;2023-03-20T00:43:42;9.50;99.90
33476;DHT22;19814;48.224;11.422;2023-03-20T00:46:12;9.50;99.90
33476;DHT22;19814;48.224;11.422;2023-03-20T00:48:40;9.60;99.90
33476;DHT22;19814;48.224;11.422;2023-03-20T00:51:06;9.50;99.90
33476;DHT22;19814;48.224;11.422;2023-03-20T00:53:32;9.50;99.90
33476;DHT22;19814;48.224;11.422;2023-03-20T00:55:58;9.60;99.90
33476;DHT22;19814;48.224;11.422;2023-03-20T00:58:23;9.60;99.90
33476;DHT22;19814;48.224;11.422;2023-03-20T01:00:49;9.60;99.90
33476;DHT22;19814;48.224;11.422;2023-03-20T01:03:18;9.50;99.90
33476;DHT22;19814;48.224;11.422;2023-03-20T01:05:45;9.50;99.90
33476;DHT22;19814;48.224;11.422;2023-03-20T01:08:24;9.50;99.90
33476;DHT22;19814;48.224;11.422;2023-03-20T01:10:52;9.60;99.90
33476;DHT22;19814;48.224;11.422;2023-03-20T01:13:24;9.60;99.90
33476;DHT22;19814;48.224;11.422;2023-03-20T01:15:51;9.50;99.90
33476;DHT22;19814;48.224;11.422;2023-03-20T01:18:19;9.50;99.90
33476;DHT22;19814;48.224;11.422;2023-03-20T01:20:46;9.50;99.90
33476;DHT22;19814;48.224;11.422;2023-03-20T01:23:12;9.50;99.90
33476;DHT22;19814;48.224;11.422;2023-03-20T01:25:38;9.50;99.90
33476;DHT22;19814;48.224;11.422;2023-03-20T01:28:19;9.50;99.90
33476;DHT22;19814;48.224;11.422;2023-03-20T01:30:45;9.50;99.90
33476;DHT22;19814;48.224;11.422;2023-03-20T01:33:14;9.50;99.90
33476;DHT22;19814;48.224;11.422;2023-03-20T01:35:39;9.50;99.90
33476;DHT22;19814;48.224;11.422;2023-03-20T01:38:14;9.60;99.90
33476;DHT22;19814;48.224;11.422;2023-03-20T01:41:13;9.50;99.90
33476;DHT22;19814;48.224;11.422;2023-03-20T01:43:39;9.60;99.90
33476;DHT22;19814;48.224;11.422;2023-03-20T01:51:15;9.60;99.90
33476;DHT22;19814;48.224;11.422;2023-03-20T01:53:41;9.60;99.90
33476;DHT22;19814;48.224;11.422;2023-03-20T01:56:07;9.60;99.90
33476;DHT22;19814;48.224;11.422;2023-03-20T01:58:35;9.60;99.90
33476;DHT22;19814;48.224;11.422;2023-03-20T02:01:04;9.60;99.90
33476;DHT22;19814;48.224;11.422;2023-03-20T02:03:31;9.60;99.90
33476;DHT22;19814;48.224;11.422;2023-03-20T02:05:58;9.60;99.90
33476;DHT22;19814;48.224;11.422;2023-03-20T02:08:27;9.60;99.90
33476;DHT22;19814;48.224;11.422;2023-03-20T02:10:54;9.50;99.90
33476;DHT22;19814;48.224;11.422;2023-03-20T02:13:20;9.50;99.90
33476;DHT22;19814;48.224;11.422;2023-03-20T02:18:19;9.40;99.90
33476;DHT22;19814;48.224;11.422;2023-03-20T02:27:05;9.40;99.90
33476;DHT22;19814;48.224;11.422;2023-03-20T02:32:33;9.40;99.90
33476;DHT22;19814;48.224;11.422;2023-03-20T02:38:07;9.30;99.90
33476;DHT22;19814;48.224;11.422;2023-03-20T02:40:44;9.30;99.90
33476;DHT22;19814;48.224;11.422;2023-03-20T02:45:48;9.20;99.90
33476;DHT22;19814;48.224;11.422;2023-03-20T03:05:03;9.20;99.90
33476;DHT22;19814;48.224;11.422;2023-03-20T03:07:32;9.20;99.90
33476;DHT22;19814;48.224;11.422;2023-03-20T03:10:05;9.20;99.90
33476;DHT22;19814;48.224;11.422;2023-03-20T03:12:39;9.20;99.90
33476;DHT22;19814;48.224;11.422;2023-03-20T03:15:26;9.20;99.90
33476;DHT22;19814;48.224;11.422;2023-03-20T03:17:54;9.20;99.90
33476;DHT22;19814;48.224;11.422;2023-03-20T03:20:30;9.20;99.90
33476;DHT22;19814;48.224;11.422;2023-03-20T03:22:58;9.20;99.90
33476;DHT22;19814;48.224;11.422;2023-03-20T03:25:27;9.20;99.90
33476;DHT22;19814;48.224;11.422;2023-03-20T03:28:22;9.30;99.90
33476;DHT22;19814;48.224;11.422;2023-03-20T03:30:46;9.30;99.90
33476;DHT22;19814;48.224;11.422;2023-03-20T03:33:27;9.30;99.90
33476;DHT22;19814;48.224;11.422;2023-03-20T03:36:00;9.40;99.90
33476;DHT22;19814;48.224;11.422;2023-03-20T03:38:30;9.40;99.90
33476;DHT22;19814;48.224;11.422;2023-03-20T03:41:21;9.40;99.90
33476;DHT22;19814;48.224;11.422;2023-03-20T03:43:56;9.40;99.90
33476;DHT22;19814;48.224;11.422;2023-03-20T03:49:26;9.40;99.90
33476;DHT22;19814;48.224;11.422;2023-03-20T03:51:56;9.40;99.90
33476;DHT22;19814;48.224;11.422;2023-03-20T03:54:28;9.40;99.90
33476;DHT22;19814;48.224;11.422;2023-03-20T03:56:55;9.30;99.90
33476;DHT22;19814;48.224;11.422;2023-03-20T03:59:40;9.30;99.90
33476;DHT22;19814;48.224;11.422;2023-03-20T04:02:07;9.20;99.90
33476;DHT22;19814;48.224;11.422;2023-03-20T04:04:36;9.30;99.90
33476;DHT22;19814;48.224;11.422;2023-03-20T04:07:03;9.20;99.90
33476;DHT22;19814;48.224;11.422;2023-03-20T04:09:29;9.30;99.90
33476;DHT22;19814;48.224;11.422;2023-03-20T04:11:54;9.30;99.90
33476;DHT22;19814;48.224;11.422;2023-03-20T04:14:20;9.20;99.90
33476;DHT22;19814;48.224;11.422;2023-03-20T04:16:46;9.20;99.90
33476;DHT22;19814;48.224;11.422;2023-03-20T04:19:11;9.20;99.90
33476;DHT22;19814;48.224;11.422;2023-03-20T04:21:37;9.20;99.90
33476;DHT22;19814;48.224;11.422;2023-03-20T04:24:03;9.10;99.90
33476;DHT22;19814;48.224;11.422;2023-03-20T04:26:29;9.10;99.90
33476;DHT22;19814;48.224;11.422;2023-03-20T04:28:54;9.10;99.90
33476;DHT22;19814;48.224;11.422;2023-03-20T04:31:20;9.10;99.90
33476;DHT22;19814;48.224;11.422;2023-03-20T04:33:46;9.10;99.90
33476;DHT22;19814;48.224;11.422;2023-03-20T04:36:12;9.10;99.90
33476;DHT22;19814;48.224;11.422;2023-03-20T04:38:37;9.00;99.90
33476;DHT22;19814;48.224;11.422;2023-03-20T04:41:03;9.00;99.90
33476;DHT22;19814;48.224;11.422;2023-03-20T04:43:29;9.00;99.90
33476;DHT22;19814;48.224;11.422;2023-03-20T04:45:54;8.90;99.90
33476;DHT22;19814;48.224;11.422;2023-03-20T04:48:20;8.80;99.90
33476;DHT22;19814;48.224;11.422;2023-03-20T04:50:46;8.80;99.90
33476;DHT22;19814;48.224;11.422;2023-03-20T04:53:13;8.80;99.90
33476;DHT22;19814;48.224;11.422;2023-03-20T04:55:40;8.90;99.90
33476;DHT22;19814;48.224;11.422;2023-03-20T04:58:05;8.90;99.90
33476;DHT22;19814;48.224;11.422;2023-03-20T05:00:32;8.90;99.90
33476;DHT22;19814;48.224;11.422;2023-03-20T05:02:58;8.80;99.90
33476;DHT22;19814;48.224;11.422;2023-03-20T05:05:23;8.90;99.90
33476;DHT22;19814;48.224;11.422;2023-03-20T05:07:50;8.80;99.90
33476;DHT22;19814;48.224;11.422;2023-03-20T05:10:16;8.80;99.90
33476;DHT22;19814;48.224;11.422;2023-03-20T05:12:41;8.80;99.90
33476;DHT22;19814;48.224;11.422;2023-03-20T05:15:07;8.80;99.90
33476;DHT22;19814;48.224;11.422;2023-03-20T05:17:33;8.80;99.90
33476;DHT22;19814;48.224;11.422;2023-03-20T05:19:59;8.80;99.90
33476;DHT22;19814;48.224;11.422;2023-03-20T05:22:24;8.80;99.90
33476;DHT22;19814;48.224;11.422;2023-03-20T05:24:50;8.80;99.90
33476;DHT22;19814;48.224;11.422;2023-03-20T05:27:15;8.80;99.90
33476;DHT22;19814;48.224;11.422;2023-03-20T05:29:41;8.80;99.90
33476;DHT22;19814;48.224;11.422;2023-03-20T05:32:07;8.70;99.90
33476;DHT22;19814;48.224;11.422;2023-03-20T05:34:32;8.70;99.90
33476;DHT22;19814;48.224;11.422;2023-03-20T05:36:58;8.70;99.90
33476;DHT22;19814;48.224;11.422;2023-03-20T05:39:24;8.70;99.90
33476;DHT22;19814;48.224;11.422;2023-03-20T05:41:49;8.70;99.90
33476;DHT22;19814;48.224;11.422;2023-03-20T05:44:15;8.70;99.90
33476;DHT22;19814;48.224;11.422;2023-03-20T05:46:41;8.70;99.90
33476;DHT22;19814;48.224;11.422;2023-03-20T05:49:06;8.60;99.90
33476;DHT22;19814;48.224;11.422;2023-03-20T05:51:32;8.60;99.90
33476;DHT22;19814;48.224;11.422;2023-03-20T05:53:57;8.60;99.90
33476;DHT22;19814;48.224;11.422;2023-03-20T05:56:23;8.60;99.90
33476;DHT22;19814;48.224;11.422;2023-03-20T05:58:48;8.60;99.90
33476;DHT22;19814;48.224;11.422;2023-03-20T06:01:14;8.60;99.90
33476;DHT22;19814;48.224;11.422;2023-03-20T06:03:42;8.50;99.90
33476;DHT22;19814;48.224;11.422;2023-03-20T06:06:08;8.50;99.90
33476;DHT22;19814;48.224;11.422;2023-03-20T06:08:34;8.50;99.90
33476;DHT22;19814;48.224;11.422;2023-03-20T06:11:01;8.40;99.90
33476;DHT22;19814;48.224;11.422;2023-03-20T06:13:28;8.40;99.90
33476;DHT22;19814;48.224;11.422;2023-03-20T06:15:53;8.40;99.90
33476;DHT22;19814;48.224;11.422;2023-03-20T06:18:19;8.50;99.90
33476;DHT22;19814;48.224;11.422;2023-03-20T06:20:45;8.50;99.90
33476;DHT22;19814;48.224;11.422;2023-03-20T06:23:10;8.50;99.90
33476;DHT22;19814;48.224;11.422;2023-03-20T06:25:36;8.50;99.90
33476;DHT22;19814;48.224;11.422;2023-03-20T06:28:03;8.60;99.90
33476;DHT22;19814;48.224;11.422;2023-03-20T06:30:28;8.70;99.90
33476;DHT22;19814;48.224;11.422;2023-03-20T06:32:54;8.70;99.90
33476;DHT22;19814;48.224;11.422;2023-03-20T06:35:19;8.70;99.90
33476;DHT22;19814;48.224;11.422;2023-03-20T06:37:45;8.70;99.90
33476;DHT22;19814;48.224;11.422;2023-03-20T06:40:10;8.70;99.90
33476;DHT22;19814;48.224;11.422;2023-03-20T06:42:36;8.80;99.90
33476;DHT22;19814;48.224;11.422;2023-03-20T06:45:02;8.80;99.90
33476;DHT22;19814;48.224;11.422;2023-03-20T06:47:28;8.70;99.90
33476;DHT22;19814;48.224;11.422;2023-03-20T06:49:53;8.80;99.90
33476;DHT22;19814;48.224;11.422;2023-03-20T06:52:19;8.90;99.90
33476;DHT22;19814;48.224;11.422;2023-03-20T06:54:47;9.00;99.90
33476;DHT22;19814;48.224;11.422;2023-03-20T06:57:13;9.10;99.90
33476;DHT22;19814;48.224;11.422;2023-03-20T06:59:38;9.20;99.90
33476;DHT22;19814;48.224;11.422;2023-03-20T07:02:04;9.40;99.90
33476;DHT22;19814;48.224;11.422;2023-03-20T07:04:30;9.60;99.90
33476;DHT22;19814;48.224;11.422;2023-03-20T07:06:56;9.80;99.90
33476;DHT22;19814;48.224;11.422;2023-03-20T07:09:22;9.90;99.90
33476;DHT22;19814;48.224;11.422;2023-03-20T07:11:48;10.20;99.90
33476;DHT22;19814;48.224;11.422;2023-03-20T07:14:14;10.60;99.90
33476;DHT22;19814;48.224;11.422;2023-03-20T07:16:39;10.90;99.90
33476;DHT22;19814;48.224;11.422;2023-03-20T07:19:06;10.90;99.90
33476;DHT22;19814;48.224;11.422;2023-03-20T07:21:31;10.80;99.90
33476;DHT22;19814;48.224;11.422;2023-03-20T07:23:57;10.50;99.90
33476;DHT22;19814;48.224;11.422;2023-03-20T07:26:23;10.20;99.90
33476;DHT22;19814;48.224;11.422;2023-03-20T07:28:48;10.10;99.90
33476;DHT22;19814;48.224;11.422;2023-03-20T07:31:25;10.00;99.90
33476;DHT22;19814;48.224;11.422;2023-03-20T07:33:50;10.00;99.90
33476;DHT22;19814;48.224;11.422;2023-03-20T07:36:16;10.10;99.90
33476;DHT22;19814;48.224;11.422;2023-03-20T07:38:42;10.30;99.90
33476;DHT22;19814;48.224;11.422;2023-03-20T07:41:07;10.40;99.90
33476;DHT22;19814;48.224;11.422;2023-03-20T07:43:33;10.50;99.90
33476;DHT22;19814;48.224;11.422;2023-03-20T07:46:06;10.80;99.90
33476;DHT22;19814;48.224;11.422;2023-03-20T07:48:32;11.10;99.90
33476;DHT22;19814;48.224;11.422;2023-03-20T07:50:58;11.30;99.90
33476;DHT22;19814;48.224;11.422;2023-03-20T07:53:23;12.00;99.90
33476;DHT22;19814;48.224;11.422;2023-03-20T07:55:49;13.40;99.90
33476;DHT22;19814;48.224;11.422;2023-03-20T07:58:14;14.50;99.90
33476;DHT22;19814;48.224;11.422;2023-03-20T08:00:41;15.40;99.90
33476;DHT22;19814;48.224;11.422;2023-03-20T08:03:06;16.00;97.70
33476;DHT22;19814;48.224;11.422;2023-03-20T08:05:32;16.10;97.50
33476;DHT22;19814;48.224;11.422;2023-03-20T08:07:58;15.80;96.90
33476;DHT22;19814;48.224;11.422;2023-03-20T08:10:23;15.20;97.80
33476;DHT22;19814;48.224;11.422;2023-03-20T08:12:49;14.70;98.40
33476;DHT22;19814;48.224;11.422;2023-03-20T08:15:14;14.60;98.40
33476;DHT22;19814;48.224;11.422;2023-03-20T08:17:42;14.30;98.70
33476;DHT22;19814;48.224;11.422;2023-03-20T08:20:09;14.30;98.50
33476;DHT22;19814;48.224;11.422;2023-03-20T08:22:35;14.70;97.30
33476;DHT22;19814;48.224;11.422;2023-03-20T08:25:00;14.80;97.20
33476;DHT22;19814;48.224;11.422;2023-03-20T08:27:26;14.70;97.60
33476;DHT22;19814;48.224;11.422;2023-03-20T08:29:51;14.50;97.90
33476;DHT22;19814;48.224;11.422;2023-03-20T08:32:17;14.30;98.00
33476;DHT22;19814;48.224;11.422;2023-03-20T08:34:43;14.20;98.80
33476;DHT22;19814;48.224;11.422;2023-03-20T08:37:08;14.50;98.20
33476;DHT22;19814;48.224;11.422;2023-03-20T08:39:34;15.40;96.80
33476;DHT22;19814;48.224;11.422;2023-03-20T08:42:00;16.30;96.70
33476;DHT22;19814;48.224;11.422;2023-03-20T08:44:26;17.80;92.20
33476;DHT22;19814;48.224;11.422;2023-03-20T08:46:51;18.10;91.40
33476;DHT22;19814;48.224;11.422;2023-03-20T08:49:19;17.90;91.30
33476;DHT22;19814;48.224;11.422;2023-03-20T08:51:45;17.70;91.50
33476;DHT22;19814;48.224;11.422;2023-03-20T08:54:10;17.30;92.60
33476;DHT22;19814;48.224;11.422;2023-03-20T08:56:36;16.90;92.20
33476;DHT22;19814;48.224;11.422;2023-03-20T08:59:02;16.10;92.40
33476;DHT22;19814;48.224;11.422;2023-03-20T09:01:27;15.80;93.90
33476;DHT22;19814;48.224;11.422;2023-03-20T09:03:53;15.40;94.10
33476;DHT22;19814;48.224;11.422;2023-03-20T09:06:18;14.80;95.30
33476;DHT22;19814;48.224;11.422;2023-03-20T09:08:44;14.60;95.50
33476;DHT22;19814;48.224;11.422;2023-03-20T09:11:10;14.50;95.80
33476;DHT22;19814;48.224;11.422;2023-03-20T09:13:36;14.40;96.10
33476;DHT22;19814;48.224;11.422;2023-03-20T09:16:02;14.60;94.80
33476;DHT22;19814;48.224;11.422;2023-03-20T09:18:27;14.50;95.40
33476;DHT22;19814;48.224;11.422;2023-03-20T09:20:53;14.20;96.00
33476;DHT22;19814;48.224;11.422;2023-03-20T09:23:20;13.80;95.70
33476;DHT22;19814;48.224;11.422;2023-03-20T09:25:46;13.50;96.80
33476;DHT22;19814;48.224;11.422;2023-03-20T09:28:12;13.40;97.30
33476;DHT22;19814;48.224;11.422;2023-03-20T09:30:38;13.30;97.70
33476;DHT22;19814;48.224;11.422;2023-03-20T09:33:03;13.40;96.90
33476;DHT22;19814;48.224;11.422;2023-03-20T09:35:29;13.40;97.70
33476;DHT22;19814;48.224;11.422;2023-03-20T09:37:55;13.30;97.70
33476;DHT22;19814;48.224;11.422;2023-03-20T09:40:29;13.10;98.70
33476;DHT22;19814;48.224;11.422;2023-03-20T09:43:18;12.90;98.00
33476;DHT22;19814;48.224;11.422;2023-03-20T09:48:39;13.00;98.70
33476;DHT22;19814;48.224;11.422;2023-03-20T09:53:54;13.70;97.70
33476;DHT22;19814;48.224;11.422;2023-03-20T09:56:25;14.00;96.60
33476;DHT22;19814;48.224;11.422;2023-03-20T09:59:02;15.60;95.50
33476;DHT22;19814;48.224;11.422;2023-03-20T10:01:34;17.10;92.80
33476;DHT22;19814;48.224;11.422;2023-03-20T10:04:06;16.80;91.60
33476;DHT22;19814;48.224;11.422;2023-03-20T10:06:34;15.90;92.80
33476;DHT22;19814;48.224;11.422;2023-03-20T10:08:59;15.20;94.20
33476;DHT22;19814;48.224;11.422;2023-03-20T10:16:57;14.70;94.80
33476;DHT22;19814;48.224;11.422;2023-03-20T10:24:46;19.70;88.30
33476;DHT22;19814;48.224;11.422;2023-03-20T10:27:38;21.40;80.70
33476;DHT22;19814;48.224;11.422;2023-03-20T10:35:31;20.80;77.40
33476;DHT22;19814;48.224;11.422;2023-03-20T10:38:05;20.40;77.80
33476;DHT22;19814;48.224;11.422;2023-03-20T10:40:38;20.70;75.50
33476;DHT22;19814;48.224;11.422;2023-03-20T10:43:19;20.60;76.20
33476;DHT22;19814;48.224;11.422;2023-03-20T10:45:49;19.90;76.40
33476;DHT22;19814;48.224;11.422;2023-03-20T10:51:21;20.00;78.40
33476;DHT22;19814;48.224;11.422;2023-03-20T10:53:52;21.00;71.80
33476;DHT22;19814;48.224;11.422;2023-03-20T10:56:43;20.30;71.60
33476;DHT22;19814;48.224;11.422;2023-03-20T10:59:37;19.60;74.70
33476;DHT22;19814;48.224;11.422;2023-03-20T11:02:09;18.70;78.20
33476;DHT22;19814;48.224;11.422;2023-03-20T11:04:35;17.90;80.10
33476;DHT22;19814;48.224;11.422;2023-03-20T11:07:33;17.30;81.80
33476;DHT22;19814;48.224;11.422;2023-03-20T11:10:08;16.80;83.30
33476;DHT22;19814;48.224;11.422;2023-03-20T11:15:14;15.70;85.80
33476;DHT22;19814;48.224;11.422;2023-03-20T11:17:40;15.50;87.40
33476;DHT22;19814;48.224;11.422;2023-03-20T11:20:06;15.30;86.90
33476;DHT22;19814;48.224;11.422;2023-03-20T11:22:33;15.10;87.50
33476;DHT22;19814;48.224;11.422;2023-03-20T11:25:00;14.90;89.90
33476;DHT22;19814;48.224;11.422;2023-03-20T11:27:31;14.70;90.80
33476;DHT22;19814;48.224;11.422;2023-03-20T11:29:57;14.80;90.20
33476;DHT22;19814;48.224;11.422;2023-03-20T11:34:53;15.00;89.90
33476;DHT22;19814;48.224;11.422;2023-03-20T11:37:32;14.90;87.60
33476;DHT22;19814;48.224;11.422;2023-03-20T11:40:23;14.70;89.80
33476;DHT22;19814;48.224;11.422;2023-03-20T11:43:01;14.60;88.20
33476;DHT22;19814;48.224;11.422;2023-03-20T11:45:34;14.70;90.30
33476;DHT22;19814;48.224;11.422;2023-03-20T11:48:03;14.90;89.80
33476;DHT22;19814;48.224;11.422;2023-03-20T11:50:35;15.10;90.80
33476;DHT22;19814;48.224;11.422;2023-03-20T11:53:03;15.20;89.00
33476;DHT22;19814;48.224;11.422;2023-03-20T11:55:43;15.20;89.80
33476;DHT22;19814;48.224;11.422;2023-03-20T11:58:14;15.10;88.00
33476;DHT22;19814;48.224;11.422;2023-03-20T12:00:42;14.90;89.50
33476;DHT22;19814;48.224;11.422;2023-03-20T12:06:27;14.50;90.30
33476;DHT22;19814;48.224;11.422;2023-03-20T12:09:04;14.40;90.90
33476;DHT22;19814;48.224;11.422;2023-03-20T12:11:55;14.20;91.60
33476;DHT22;19814;48.224;11.422;2023-03-20T12:20:28;13.80;91.90
33476;DHT22;19814;48.224;11.422;2023-03-20T12:22:57;13.80;92.00
33476;DHT22;19814;48.224;11.422;2023-03-20T12:28:28;13.60;91.90
33476;DHT22;19814;48.224;11.422;2023-03-20T12:33:50;13.70;91.70
33476;DHT22;19814;48.224;11.422;2023-03-20T12:36:38;13.80;91.80
33476;DHT22;19814;48.224;11.422;2023-03-20T12:39:13;13.90;92.10
33476;DHT22;19814;48.224;11.422;2023-03-20T12:44:38;14.10;91.70
33476;DHT22;19814;48.224;11.422;2023-03-20T12:49:56;14.10;91.70
33476;DHT22;19814;48.224;11.422;2023-03-20T13:00:57;13.80;90.20
33476;DHT22;19814;48.224;11.422;2023-03-20T13:11:41;13.70;92.00
33476;DHT22;19814;48.224;11.422;2023-03-20T13:17:15;13.80;92.00
33476;DHT22;19814;48.224;11.422;2023-03-20T13:22:36;14.10;91.90
33476;DHT22;19814;48.224;11.422;2023-03-20T13:27:47;14.30;91.40
33476;DHT22;19814;48.224;11.422;2023-03-20T13:30:25;14.50;91.50
33476;DHT22;19814;48.224;11.422;2023-03-20T13:35:36;15.50;90.60
33476;DHT22;19814;48.224;11.422;2023-03-20T13:38:23;15.50;86.70
33476;DHT22;19814;48.224;11.422;2023-03-20T13:41:01;15.30;87.60
33476;DHT22;19814;48.224;11.422;2023-03-20T13:43:29;15.10;87.30
33476;DHT22;19814;48.224;11.422;2023-03-20T13:46:53;15.10;86.80
33476;DHT22;19814;48.224;11.422;2023-03-20T13:49:06;15.30;87.60
33476;DHT22;19814;48.224;11.422;2023-03-20T13:51:55;15.40;86.10
33476;DHT22;19814;48.224;11.422;2023-03-20T14:03:12;15.00;90.10
33476;DHT22;19814;48.224;11.422;2023-03-20T14:05:40;15.00;88.20
33476;DHT22;19814;48.224;11.422;2023-03-20T14:13:51;14.90;86.80
33476;DHT22;19814;48.224;11.422;2023-03-20T14:16:19;14.80;87.70
33476;DHT22;19814;48.224;11.422;2023-03-20T14:18:48;14.80;89.30
33476;DHT22;19814;48.224;11.422;2023-03-20T14:21:18;14.90;87.70
33476;DHT22;19814;48.224;11.422;2023-03-20T14:24:01;14.90;87.70
33476;DHT22;19814;48.224;11.422;2023-03-20T14:26:29;14.70;87.10
33476;DHT22;19814;48.224;11.422;2023-03-20T14:29:19;14.60;87.20
33476;DHT22;19814;48.224;11.422;2023-03-20T14:31:48;14.50;87.20
33476;DHT22;19814;48.224;11.422;2023-03-20T14:34:21;14.50;88.80
33476;DHT22;19814;48.224;11.422;2023-03-20T14:53:16;14.40;90.00
33476;DHT22;19814;48.224;11.422;2023-03-20T15:04:08;14.30;90.40
33476;DHT22;19814;48.224;11.422;2023-03-20T15:06:43;14.10;90.50
33476;DHT22;19814;48.224;11.422;2023-03-20T15:09:10;14.20;89.10
33476;DHT22;19814;48.224;11.422;2023-03-20T15:11:37;14.20;89.00
33476;DHT22;19814;48.224;11.422;2023-03-20T15:14:18;14.20;89.40
33476;DHT22;19814;48.224;11.422;2023-03-20T15:16:47;14.20;89.30
33476;DHT22;19814;48.224;11.422;2023-03-20T15:19:18;14.20;88.80
33476;DHT22;19814;48.224;11.422;2023-03-20T15:21:45;14.20;90.40
33476;DHT22;19814;48.224;11.422;2023-03-20T15:24:20;14.20;89.70
33476;DHT22;19814;48.224;11.422;2023-03-20T15:26:46;14.10;88.70
33476;DHT22;19814;48.224;11.422;2023-03-20T15:29:16;14.00;89.10
33476;DHT22;19814;48.224;11.422;2023-03-20T15:31:43;13.90;89.60
33476;DHT22;19814;48.224;11.422;2023-03-20T15:34:16;13.80;88.50
33476;DHT22;19814;48.224;11.422;2023-03-20T15:36:43;13.70;88.40
33476;DHT22;19814;48.224;11.422;2023-03-20T15:39:13;13.60;89.40
33476;DHT22;19814;48.224;11.422;2023-03-20T15:41:44;13.60;90.20
33476;DHT22;19814;48.224;11.422;2023-03-20T15:46:40;13.60;90.50
33476;DHT22;19814;48.224;11.422;2023-03-20T15:49:06;13.60;90.50
33476;DHT22;19814;48.224;11.422;2023-03-20T15:51:33;13.60;90.70
33476;DHT22;19814;48.224;11.422;2023-03-20T15:54:00;13.60;90.30
33476;DHT22;19814;48.224;11.422;2023-03-20T15:56:26;13.40;90.70
33476;DHT22;19814;48.224;11.422;2023-03-20T15:58:53;13.30;91.20
33476;DHT22;19814;48.224;11.422;2023-03-20T16:01:24;13.30;91.40
33476;DHT22;19814;48.224;11.422;2023-03-20T16:03:50;13.30;91.50
33476;DHT22;19814;48.224;11.422;2023-03-20T16:06:21;13.30;91.10
33476;DHT22;19814;48.224;11.422;2023-03-20T16:09:00;13.30;90.80
33476;DHT22;19814;48.224;11.422;2023-03-20T16:11:35;13.30;90.90
33476;DHT22;19814;48.224;11.422;2023-03-20T16:14:01;13.20;91.10
33476;DHT22;19814;48.224;11.422;2023-03-20T16:16:27;13.10;92.10
33476;DHT22;19814;48.224;11.422;2023-03-20T16:18:54;13.10;91.80
33476;DHT22;19814;48.224;11.422;2023-03-20T16:21:21;13.10;91.80
33476;DHT22;19814;48.224;11.422;2023-03-20T16:23:50;13.00;91.70
33476;DHT22;19814;48.224;11.422;2023-03-20T16:26:18;13.00;91.20
33476;DHT22;19814;48.224;11.422;2023-03-20T16:28:46;12.80;91.60
33476;DHT22;19814;48.224;11.422;2023-03-20T16:31:19;12.70;91.50
33476;DHT22;19814;48.224;11.422;2023-03-20T16:33:46;12.60;91.90
33476;DHT22;19814;48.224;11.422;2023-03-20T16:36:15;12.60;92.10
33476;DHT22;19814;48.224;11.422;2023-03-20T16:38:52;12.50;92.20
33476;DHT22;19814;48.224;11.422;2023-03-20T16:41:29;12.50;92.20
33476;DHT22;19814;48.224;11.422;2023-03-20T16:43:55;12.50;92.90
33476;DHT22;19814;48.224;11.422;2023-03-20T16:46:22;12.40;93.00
33476;DHT22;19814;48.224;11.422;2023-03-20T16:48:50;12.40;92.90
33476;DHT22;19814;48.224;11.422;2023-03-20T16:51:24;12.40;92.70
33476;DHT22;19814;48.224;11.422;2023-03-20T16:53:55;12.40;92.90
33476;DHT22;19814;48.224;11.422;2023-03-20T16:56:28;12.30;92.90
33476;DHT22;19814;48.224;11.422;2023-03-20T16:58:57;12.20;93.70
33476;DHT22;19814;48.224;11.422;2023-03-20T17:01:25;12.10;93.30
33476;DHT22;19814;48.224;11.422;2023-03-20T17:03:54;12.10;93.40
33476;DHT22;19814;48.224;11.422;2023-03-20T17:11:21;11.90;93.80
33476;DHT22;19814;48.224;11.422;2023-03-20T17:13:47;11.90;94.00
33476;DHT22;19814;48.224;11.422;2023-03-20T17:16:16;11.80;94.40
33476;DHT22;19814;48.224;11.422;2023-03-20T17:18:49;11.80;94.10
33476;DHT22;19814;48.224;11.422;2023-03-20T17:21:22;11.70;93.90
33476;DHT22;19814;48.224;11.422;2023-03-20T17:23:47;11.60;94.10
33476;DHT22;19814;48.224;11.422;2023-03-20T17:26:13;11.50;94.50
33476;DHT22;19814;48.224;11.422;2023-03-20T17:28:39;11.40;94.60
33476;DHT22;19814;48.224;11.422;2023-03-20T17:31:04;11.40;95.00
33476;DHT22;19814;48.224;11.422;2023-03-20T17:33:31;11.10;95.60
33476;DHT22;19814;48.224;11.422;2023-03-20T17:35:58;11.00;96.20
33476;DHT22;19814;48.224;11.422;2023-03-20T17:38:24;10.90;96.40
33476;DHT22;19814;48.224;11.422;2023-03-20T17:40:50;10.80;96.50
33476;DHT22;19814;48.224;11.422;2023-03-20T17:43:17;10.70;96.70
33476;DHT22;19814;48.224;11.422;2023-03-20T17:45:43;10.60;96.90
33476;DHT22;19814;48.224;11.422;2023-03-20T17:48:15;10.50;97.40
33476;DHT22;19814;48.224;11.422;2023-03-20T17:50:44;10.40;97.70
33476;DHT22;19814;48.224;11.422;2023-03-20T17:53:14;10.30;97.50
33476;DHT22;19814;48.224;11.422;2023-03-20T17:55:40;10.20;97.00
33476;DHT22;19814;48.224;11.422;2023-03-20T17:58:05;10.10;97.00
33476;DHT22;19814;48.224;11.422;2023-03-20T18:00:31;9.90;97.50
33476;DHT22;19814;48.224;11.422;2023-03-20T18:02:56;9.80;97.80
33476;DHT22;19814;48.224;11.422;2023-03-20T18:05:22;9.70;98.10
33476;DHT22;19814;48.224;11.422;2023-03-20T18:07:47;9.70;98.50
33476;DHT22;19814;48.224;11.422;2023-03-20T18:10:25;9.70;98.70
33476;DHT22;19814;48.224;11.422;2023-03-20T18:12:52;9.70;98.90
33476;DHT22;19814;48.224;11.422;2023-03-20T18:15:17;9.70;98.40
33476;DHT22;19814;48.224;11.422;2023-03-20T18:17:43;9.50;98.50
33476;DHT22;19814;48.224;11.422;2023-03-20T18:20:30;9.40;98.80
33476;DHT22;19814;48.224;11.422;2023-03-20T18:23:08;9.30;99.20
33476;DHT22;19814;48.224;11.422;2023-03-20T18:25:34;9.20;99.30